createdAt,value
2017-10-13T00:03:55.597Z,7
2017-10-13T00:13:55.473Z,7
2017-10-13T00:23:55.494Z,8
2017-10-13T00:33:55.530Z,8
2017-10-13T00:43:55.521Z,8
2017-10-13T00:53:55.459Z,7
2017-10-13T01:03:55.423Z,8
2017-10-13T01:13:55.491Z,7
2017-10-13T01:23:55.567Z,8
2017-10-13T01:33:55.513Z,9
2017-10-13T01:43:55.419Z,7
2017-10-13T01:53:55.546Z,8
2017-10-13T02:03:55.526Z,8
2017-10-13T02:13:55.541Z,8
2017-10-13T02:23:55.485Z,9
2017-10-13T02:33:55.493Z,8
2017-10-13T02:43:55.607Z,7
2017-10-13T02:53:55.597Z,7
2017-10-13T03:03:55.484Z,8
2017-10-13T03:13:55.565Z,9
2017-10-13T03:23:55.516Z,10
2017-10-13T03:33:55.433Z,10
2017-10-13T03:43:55.573Z,10
2017-10-13T03:53:55.495Z,10
2017-10-13T04:03:55.530Z,9
2017-10-13T04:13:55.477Z,9
2017-10-13T04:23:55.565Z,9
2017-10-13T04:33:55.510Z,9
2017-10-13T04:43:55.536Z,10
2017-10-13T04:53:55.542Z,10
2017-10-13T05:03:55.513Z,9
2017-10-13T05:13:55.604Z,13
2017-10-13T05:24:13.474Z,12
2017-10-13T05:33:55.557Z,10
2017-10-13T05:43:55.584Z,9
2017-10-13T05:53:56.623Z,10
2017-10-13T06:03:55.723Z,13
2017-10-13T06:13:55.630Z,9
2017-10-13T06:23:55.671Z,9
2017-10-13T06:33:55.622Z,8
2017-10-13T06:43:55.767Z,10
2017-10-13T06:53:55.698Z,8
2017-10-13T07:03:55.759Z,7
2017-10-13T07:13:55.652Z,7
2017-10-13T07:23:55.731Z,8
2017-10-13T07:33:55.812Z,8
2017-10-13T07:43:55.671Z,6
2017-10-13T07:54:08.480Z,8
2017-10-13T08:03:55.716Z,8
2017-10-13T08:13:55.739Z,8
2017-10-13T08:23:55.679Z,8
2017-10-13T08:33:55.779Z,9
2017-10-13T08:43:55.767Z,10
2017-10-13T08:53:55.709Z,12
2017-10-13T09:03:55.780Z,14
2017-10-13T09:13:55.809Z,14
2017-10-13T09:23:56.451Z,19
2017-10-13T09:33:55.778Z,19
2017-10-13T09:43:55.856Z,17
2017-10-13T09:53:55.897Z,16
2017-10-13T10:03:55.965Z,15
2017-10-13T10:13:56.062Z,15
2017-10-13T10:23:55.864Z,13
2017-10-13T10:33:55.924Z,14
2017-10-13T10:43:55.831Z,14
2017-10-13T10:53:55.845Z,11
2017-10-13T11:03:55.865Z,13
2017-10-13T11:13:55.875Z,12
2017-10-13T11:23:55.860Z,12
2017-10-13T11:33:55.879Z,10
2017-10-13T11:43:55.826Z,11
2017-10-13T11:53:55.859Z,12
2017-10-13T12:03:55.877Z,13
2017-10-13T12:13:55.847Z,12
2017-10-13T12:23:55.973Z,12
2017-10-13T12:33:55.952Z,9
2017-10-13T12:43:55.953Z,11
2017-10-13T12:53:56.570Z,10
2017-10-13T13:03:55.988Z,9
2017-10-13T13:13:56.003Z,9
2017-10-13T13:23:55.984Z,10
2017-10-13T13:33:55.966Z,9
2017-10-13T13:43:55.921Z,8
2017-10-13T13:53:55.972Z,9
2017-10-13T14:03:55.852Z,10
2017-10-13T14:13:55.858Z,8
2017-10-13T14:23:55.865Z,8
2017-10-13T14:33:55.853Z,8
2017-10-13T14:43:55.874Z,7
2017-10-13T14:53:55.866Z,8
2017-10-13T15:03:55.844Z,7
2017-10-13T15:13:55.889Z,8
2017-10-13T15:23:55.916Z,8
2017-10-13T15:33:55.897Z,8
2017-10-13T15:43:55.938Z,8
2017-10-13T15:53:56.216Z,9
2017-10-13T16:03:55.934Z,8
2017-10-13T16:13:55.838Z,8
2017-10-13T16:23:55.901Z,8
2017-10-13T16:33:55.947Z,9
2017-10-13T16:43:55.898Z,9
2017-10-13T16:53:55.951Z,10
2017-10-13T17:03:55.880Z,10
2017-10-13T17:13:55.879Z,10
2017-10-13T17:23:55.898Z,10
2017-10-13T17:33:55.917Z,9
2017-10-13T17:43:55.926Z,8
2017-10-13T17:53:55.892Z,10
2017-10-13T18:03:55.882Z,11
2017-10-13T18:13:55.874Z,11
2017-10-13T18:23:55.872Z,9
2017-10-13T18:33:55.988Z,11
2017-10-13T18:43:55.889Z,10
2017-10-13T18:53:55.955Z,11
2017-10-13T19:03:55.929Z,10
2017-10-13T19:13:55.920Z,12
2017-10-13T19:23:55.895Z,11
2017-10-13T19:33:55.943Z,12
2017-10-13T19:44:02.322Z,13
2017-10-13T19:54:02.409Z,13
2017-10-13T20:04:02.479Z,13
2017-10-13T20:14:02.450Z,13
2017-10-13T20:24:02.374Z,13
2017-10-13T20:33:58.236Z,13
2017-10-13T20:43:56.004Z,13
2017-10-13T20:53:56.019Z,14
2017-10-13T21:03:56.082Z,13
2017-10-13T21:13:56.068Z,14
2017-10-13T21:23:56.046Z,14
2017-10-13T21:33:56.065Z,15
2017-10-13T21:43:56.075Z,14
2017-10-13T21:53:56.054Z,14
2017-10-13T22:03:56.181Z,13
2017-10-13T22:13:56.082Z,14
2017-10-13T22:23:56.098Z,14
2017-10-13T22:33:56.132Z,13
2017-10-13T22:43:56.113Z,13
2017-10-13T22:53:56.127Z,15
2017-10-13T23:03:56.137Z,14
2017-10-13T23:13:56.152Z,13
2017-10-13T23:23:56.183Z,14
2017-10-13T23:33:56.174Z,13
2017-10-13T23:43:56.209Z,13
2017-10-13T23:53:56.155Z,14
